createdAt,value
2018-09-14T00:00:37.711Z,16.10
2018-09-14T00:03:07.116Z,15.77
2018-09-14T00:05:35.216Z,15.73
2018-09-14T00:08:04.179Z,18.37
2018-09-14T00:10:32.310Z,19.13
2018-09-14T00:13:00.422Z,17.00
2018-09-14T00:15:28.529Z,21.70
2018-09-14T00:17:56.647Z,21.17
2018-09-14T00:20:24.747Z,19.00
2018-09-14T00:22:52.864Z,20.30
2018-09-14T00:25:20.963Z,18.47
2018-09-14T00:27:49.114Z,24.17
2018-09-14T00:30:17.355Z,21.27
2018-09-14T00:32:45.446Z,22.90
2018-09-14T00:35:13.534Z,25.80
2018-09-14T00:37:41.799Z,26.17
2018-09-14T00:40:10.339Z,25.70
2018-09-14T00:42:38.459Z,33.00
2018-09-14T00:45:06.564Z,30.13
2018-09-14T00:47:34.659Z,27.10
2018-09-14T00:50:02.776Z,29.37
2018-09-14T00:52:30.895Z,34.03
2018-09-14T00:54:58.999Z,30.10
2018-09-14T00:57:27.097Z,30.20
2018-09-14T00:59:55.202Z,35.43
2018-09-14T01:02:23.363Z,32.87
2018-09-14T01:04:51.482Z,33.40
2018-09-14T01:07:19.598Z,36.53
2018-09-14T01:09:47.698Z,36.33
2018-09-14T01:12:15.820Z,27.53
2018-09-14T01:14:43.934Z,34.67
2018-09-14T01:17:12.036Z,35.20
2018-09-14T01:19:40.159Z,33.63
2018-09-14T01:22:08.331Z,33.30
2018-09-14T01:24:36.431Z,31.50
2018-09-14T01:27:04.538Z,37.50
2018-09-14T01:29:32.655Z,32.30
2018-09-14T01:32:00.744Z,35.23
2018-09-14T01:34:28.850Z,30.40
2018-09-14T01:36:56.972Z,31.90
2018-09-14T01:39:25.073Z,31.00
2018-09-14T01:41:53.170Z,32.57
2018-09-14T01:44:21.297Z,31.30
2018-09-14T01:46:49.379Z,31.37
2018-09-14T01:49:17.487Z,29.00
2018-09-14T01:51:45.583Z,25.73
2018-09-14T01:54:13.703Z,24.50
2018-09-14T01:56:41.798Z,26.83
2018-09-14T01:59:09.895Z,25.17
2018-09-14T02:01:38.008Z,25.60
2018-09-14T02:04:06.113Z,25.93
2018-09-14T02:06:34.207Z,27.50
2018-09-14T02:09:02.320Z,26.87
2018-09-14T02:11:30.415Z,28.00
2018-09-14T02:13:58.522Z,26.77
2018-09-14T02:16:26.616Z,28.83
2018-09-14T02:18:54.721Z,27.50
2018-09-14T02:21:23.383Z,26.50
2018-09-14T02:23:51.487Z,27.90
2018-09-14T02:26:19.683Z,24.43
2018-09-14T02:28:47.779Z,23.90
2018-09-14T02:31:15.884Z,26.20
2018-09-14T02:33:44.051Z,26.10
2018-09-14T02:36:12.331Z,25.23
2018-09-14T02:38:40.436Z,25.33
2018-09-14T02:41:08.541Z,28.10
2018-09-14T02:43:36.630Z,23.50
2018-09-14T02:46:04.731Z,23.50
2018-09-14T02:48:32.850Z,25.37
2018-09-14T02:51:00.947Z,25.13
2018-09-14T02:53:29.035Z,22.40
2018-09-14T02:55:57.148Z,24.17
2018-09-14T02:58:25.258Z,24.63
2018-09-14T03:00:53.360Z,23.47
2018-09-14T03:03:21.491Z,23.30
2018-09-14T03:05:49.591Z,27.33
2018-09-14T03:08:17.719Z,23.90
2018-09-14T03:10:45.841Z,27.10
2018-09-14T03:13:13.930Z,26.97
2018-09-14T03:15:42.034Z,25.17
2018-09-14T03:18:10.129Z,25.50
2018-09-14T03:20:38.226Z,25.40
2018-09-14T03:23:06.358Z,24.33
2018-09-14T03:25:34.476Z,24.37
2018-09-14T03:28:02.607Z,23.13
2018-09-14T03:30:30.716Z,25.40
2018-09-14T03:32:58.904Z,28.50
2018-09-14T03:35:27.000Z,24.67
2018-09-14T03:37:55.139Z,25.10
2018-09-14T03:40:23.320Z,26.03
2018-09-14T03:42:51.443Z,26.37
2018-09-14T03:45:19.553Z,23.50
2018-09-14T03:47:47.739Z,26.03
2018-09-14T03:50:15.838Z,22.80
2018-09-14T03:52:43.952Z,30.13
2018-09-14T03:55:12.044Z,24.77
2018-09-14T03:57:40.115Z,21.27
2018-09-14T04:00:08.213Z,26.80
2018-09-14T04:02:36.335Z,22.90
2018-09-14T04:05:04.481Z,29.60
2018-09-14T04:07:32.576Z,28.40
2018-09-14T04:10:00.686Z,23.37
2018-09-14T04:12:28.814Z,26.63
2018-09-14T04:14:56.895Z,27.40
2018-09-14T04:17:24.982Z,24.60
2018-09-14T04:19:53.079Z,25.73
2018-09-14T04:22:21.191Z,23.37
2018-09-14T04:24:49.283Z,26.80
2018-09-14T04:27:17.387Z,31.90
2018-09-14T04:29:45.488Z,27.37
2018-09-14T04:32:13.583Z,26.73
2018-09-14T04:34:41.715Z,23.63
2018-09-14T04:37:09.806Z,30.03
2018-09-14T04:39:37.915Z,28.53
2018-09-14T04:42:06.016Z,28.23
2018-09-14T04:44:34.107Z,32.10
2018-09-14T04:47:02.213Z,32.40
2018-09-14T04:49:30.331Z,29.00
2018-09-14T04:51:58.444Z,32.00
2018-09-14T04:54:26.548Z,35.17
2018-09-14T04:56:54.650Z,31.20
2018-09-14T04:59:22.779Z,32.97
2018-09-14T05:01:50.873Z,33.93
2018-09-14T05:04:18.972Z,33.97
2018-09-14T05:06:47.084Z,36.77
2018-09-14T05:09:15.183Z,38.40
2018-09-14T05:11:43.286Z,36.43
2018-09-14T05:14:11.401Z,32.77
2018-09-14T05:16:39.485Z,38.87
2018-09-14T05:19:07.584Z,38.93
2018-09-14T05:21:35.692Z,38.00
2018-09-14T05:24:03.888Z,38.90
2018-09-14T05:26:31.939Z,36.40
2018-09-14T05:29:00.096Z,30.43
2018-09-14T05:31:28.239Z,32.57
2018-09-14T05:33:56.339Z,33.30
2018-09-14T05:36:24.445Z,36.07
2018-09-14T05:38:52.559Z,30.73
2018-09-14T05:41:20.651Z,35.00
2018-09-14T05:43:48.773Z,32.27
2018-09-14T05:46:16.871Z,28.47
2018-09-14T05:48:44.965Z,30.03
2018-09-14T05:51:13.070Z,30.27
2018-09-14T05:53:41.171Z,29.87
2018-09-14T05:56:09.280Z,29.57
2018-09-14T05:58:37.356Z,32.97
2018-09-14T06:01:05.493Z,34.73
2018-09-14T06:03:33.630Z,32.67
2018-09-14T06:06:01.676Z,33.73
2018-09-14T06:08:29.777Z,34.73
2018-09-14T06:10:57.895Z,39.20
2018-09-14T06:13:26.026Z,42.33
2018-09-14T06:15:54.175Z,36.33
2018-09-14T06:18:22.323Z,38.00
2018-09-14T06:20:50.431Z,38.23
2018-09-14T06:23:18.545Z,39.70
2018-09-14T06:25:46.776Z,34.27
2018-09-14T06:28:14.883Z,40.67
2018-09-14T06:30:42.978Z,41.93
2018-09-14T06:33:11.068Z,39.47
2018-09-14T06:35:39.191Z,40.73
2018-09-14T06:38:07.341Z,41.30
2018-09-14T06:40:35.413Z,42.37
2018-09-14T06:43:03.549Z,42.70
2018-09-14T06:45:31.706Z,45.13
2018-09-14T06:47:59.764Z,39.67
2018-09-14T06:50:27.859Z,45.37
2018-09-14T06:52:55.954Z,39.93
2018-09-14T06:55:24.082Z,34.00
2018-09-14T06:57:52.178Z,35.80
2018-09-14T07:00:20.491Z,39.33
2018-09-14T07:02:48.400Z,38.80
2018-09-14T07:05:16.493Z,43.93
2018-09-14T07:07:45.474Z,39.07
2018-09-14T07:10:13.584Z,42.30
2018-09-14T07:12:41.696Z,41.00
2018-09-14T07:15:09.799Z,37.90
2018-09-14T07:17:37.896Z,39.63
2018-09-14T07:20:05.979Z,37.47
2018-09-14T07:22:34.084Z,37.50
2018-09-14T07:25:02.188Z,33.17
2018-09-14T07:27:30.288Z,43.23
2018-09-14T07:29:58.393Z,37.60
2018-09-14T07:32:26.508Z,32.13
2018-09-14T07:34:54.581Z,38.10
2018-09-14T07:37:22.690Z,30.80
2018-09-14T07:39:50.891Z,22.90
2018-09-14T07:42:19.043Z,26.10
2018-09-14T07:44:47.122Z,25.80
2018-09-14T07:47:15.215Z,20.57
2018-09-14T07:49:43.331Z,23.20
2018-09-14T07:52:11.475Z,27.23
2018-09-14T07:54:39.566Z,24.03
2018-09-14T07:57:07.670Z,22.47
2018-09-14T07:59:35.779Z,18.63
2018-09-14T08:02:03.910Z,20.10
2018-09-14T08:04:32.023Z,25.13
2018-09-14T08:07:00.154Z,23.07
2018-09-14T08:09:28.274Z,25.30
2018-09-14T08:11:56.419Z,23.90
2018-09-14T08:14:24.471Z,22.17
2018-09-14T08:16:52.571Z,25.33
2018-09-14T08:19:20.671Z,21.93
2018-09-14T08:21:48.809Z,22.90
2018-09-14T08:24:16.872Z,20.83
2018-09-14T08:26:45.049Z,18.37
2018-09-14T08:29:13.095Z,18.00
2018-09-14T08:31:41.202Z,16.77
2018-09-14T08:34:09.394Z,18.77
2018-09-14T08:36:37.491Z,18.47
2018-09-14T08:39:08.397Z,27.00
2018-09-14T08:41:36.497Z,19.17
2018-09-14T08:44:04.628Z,16.77
2018-09-14T08:46:32.721Z,15.37
2018-09-14T08:49:00.820Z,18.33
2018-09-14T08:51:28.962Z,18.10
2018-09-14T08:53:57.054Z,14.83
2018-09-14T08:56:25.171Z,13.43
2018-09-14T08:58:53.265Z,11.00
2018-09-14T09:01:21.372Z,13.87
2018-09-14T09:03:49.478Z,11.03
2018-09-14T09:06:17.561Z,10.13
2018-09-14T09:08:45.664Z,13.50
2018-09-14T09:11:13.768Z,9.93
2018-09-14T09:13:41.865Z,11.27
2018-09-14T09:16:09.950Z,9.47
2018-09-14T09:18:38.054Z,10.93
2018-09-14T09:21:06.161Z,11.77
2018-09-14T09:23:34.317Z,9.30
2018-09-14T09:26:02.364Z,10.40
2018-09-14T09:28:30.468Z,9.70
2018-09-14T09:30:58.560Z,8.63
2018-09-14T09:33:26.670Z,11.00
2018-09-14T09:35:54.782Z,10.83
2018-09-14T09:38:22.867Z,9.33
2018-09-14T09:40:50.963Z,10.97
2018-09-14T09:43:19.129Z,8.77
2018-09-14T09:45:47.146Z,7.67
2018-09-14T09:48:15.244Z,7.30
2018-09-14T09:50:43.344Z,10.03
2018-09-14T09:53:11.435Z,11.90
2018-09-14T09:55:39.540Z,8.00
2018-09-14T09:58:07.983Z,8.10
2018-09-14T10:00:41.652Z,8.23
2018-09-14T10:03:16.029Z,8.20
2018-09-14T10:05:49.700Z,8.27
2018-09-14T10:08:17.926Z,8.33
2018-09-14T10:10:46.040Z,12.30
2018-09-14T10:13:14.123Z,9.97
2018-09-14T10:15:42.214Z,8.73
2018-09-14T10:18:10.299Z,9.40
2018-09-14T10:20:38.392Z,9.37
2018-09-14T10:23:06.469Z,9.30
2018-09-14T10:25:34.571Z,8.80
2018-09-14T10:28:02.651Z,11.50
2018-09-14T10:30:30.740Z,7.73
2018-09-14T10:32:58.828Z,8.63
2018-09-14T10:35:26.942Z,9.03
2018-09-14T10:37:55.106Z,7.17
2018-09-14T10:40:23.297Z,7.63
2018-09-14T10:42:51.432Z,7.10
2018-09-14T10:45:19.533Z,8.80
2018-09-14T10:47:47.613Z,10.50
2018-09-14T10:50:15.699Z,9.20
2018-09-14T10:52:43.789Z,10.10
2018-09-14T10:55:12.080Z,6.40
2018-09-14T10:57:40.120Z,7.43
2018-09-14T11:00:08.203Z,7.53
2018-09-14T11:02:36.300Z,11.47
2018-09-14T11:05:04.390Z,7.80
2018-09-14T11:07:32.544Z,6.63
2018-09-14T11:10:00.660Z,8.90
2018-09-14T11:12:28.715Z,9.40
2018-09-14T11:14:56.776Z,11.17
2018-09-14T11:17:24.886Z,7.80
2018-09-14T11:19:53.019Z,8.40
2018-09-14T11:22:21.278Z,9.23
2018-09-14T11:24:49.614Z,8.60
2018-09-14T11:27:17.571Z,9.17
2018-09-14T11:29:45.658Z,9.73
2018-09-14T11:32:13.791Z,8.20
2018-09-14T11:34:41.889Z,7.83
2018-09-14T11:37:10.007Z,8.60
2018-09-14T11:39:38.080Z,10.20
2018-09-14T11:42:06.201Z,6.87
2018-09-14T11:44:34.283Z,9.00
2018-09-14T11:47:02.372Z,9.60
2018-09-14T11:49:30.442Z,7.40
2018-09-14T11:51:58.527Z,9.73
2018-09-14T11:54:26.681Z,6.53
2018-09-14T11:56:54.746Z,8.67
2018-09-14T11:59:22.834Z,8.00
2018-09-14T12:01:50.932Z,9.00
2018-09-14T12:04:19.089Z,9.60
2018-09-14T12:06:47.131Z,7.77
2018-09-14T12:09:15.306Z,7.13
2018-09-14T12:11:43.406Z,6.67
2018-09-14T12:14:11.579Z,5.50
2018-09-14T12:16:39.641Z,9.13
2018-09-14T12:19:07.742Z,6.73
2018-09-14T12:21:35.836Z,5.50
2018-09-14T12:24:03.937Z,11.93
2018-09-14T12:26:32.043Z,12.07
2018-09-14T12:29:00.146Z,9.27
2018-09-14T12:31:28.223Z,9.23
2018-09-14T12:33:56.320Z,8.50
2018-09-14T12:36:24.419Z,10.70
2018-09-14T12:38:52.530Z,8.13
2018-09-14T12:41:20.608Z,6.83
2018-09-14T12:43:48.690Z,8.13
2018-09-14T12:46:16.873Z,8.90
2018-09-14T12:48:45.062Z,6.27
2018-09-14T12:51:13.072Z,7.60
2018-09-14T12:53:41.180Z,8.30
2018-09-14T12:56:09.281Z,8.50
2018-09-14T12:58:37.382Z,6.60
2018-09-14T13:01:05.486Z,12.33
2018-09-14T13:03:33.657Z,8.60
2018-09-14T13:06:01.741Z,8.07
2018-09-14T13:08:29.831Z,7.70
2018-09-14T13:10:57.932Z,6.10
2018-09-14T13:13:26.039Z,7.27
2018-09-14T13:15:54.131Z,6.80
2018-09-14T13:18:22.240Z,7.70
2018-09-14T13:20:50.342Z,5.97
2018-09-14T13:23:18.535Z,7.80
2018-09-14T13:25:46.643Z,6.20
2018-09-14T13:28:14.838Z,7.30
2018-09-14T13:30:42.930Z,6.10
2018-09-14T13:33:11.031Z,6.70
2018-09-14T13:35:39.124Z,6.73
2018-09-14T13:38:07.245Z,12.53
2018-09-14T13:40:35.311Z,7.50
2018-09-14T13:43:03.408Z,6.37
2018-09-14T13:45:31.497Z,7.33
2018-09-14T13:47:59.597Z,7.03
2018-09-14T13:50:27.677Z,7.47
2018-09-14T13:52:55.865Z,6.33
2018-09-14T13:55:23.855Z,6.20
2018-09-14T13:57:51.939Z,5.63
2018-09-14T14:00:20.051Z,6.13
2018-09-14T14:02:48.143Z,6.23
2018-09-14T14:05:16.243Z,8.37
2018-09-14T14:07:44.372Z,7.20
2018-09-14T14:10:12.503Z,6.77
2018-09-14T14:12:40.556Z,5.80
2018-09-14T14:15:08.647Z,6.53
2018-09-14T14:17:36.976Z,4.67
2018-09-14T14:20:04.818Z,3.90
2018-09-14T14:22:32.890Z,5.10
2018-09-14T14:25:00.988Z,4.17
2018-09-14T14:27:29.253Z,7.50
2018-09-14T14:29:57.439Z,4.87
2018-09-14T14:32:25.525Z,4.50
2018-09-14T14:34:53.679Z,9.70
2018-09-14T14:37:21.766Z,5.53
2018-09-14T14:39:49.898Z,6.43
2018-09-14T14:42:17.985Z,4.97
2018-09-14T14:44:46.151Z,5.27
2018-09-14T14:47:14.243Z,3.83
2018-09-14T14:49:42.350Z,7.17
2018-09-14T14:52:10.586Z,5.67
2018-09-14T14:54:38.679Z,3.90
2018-09-14T14:57:06.752Z,4.53
2018-09-14T14:59:34.866Z,3.67
2018-09-14T15:02:03.104Z,4.20
2018-09-14T15:04:31.246Z,5.73
2018-09-14T15:06:59.345Z,3.77
2018-09-14T15:09:27.426Z,3.63
2018-09-14T15:11:55.516Z,3.40
2018-09-14T15:14:23.611Z,4.57
2018-09-14T15:16:51.699Z,4.17
2018-09-14T15:19:19.980Z,6.50
2018-09-14T15:21:47.903Z,3.83
2018-09-14T15:24:16.032Z,4.20
2018-09-14T15:26:44.151Z,11.00
2018-09-14T15:29:12.228Z,4.93
2018-09-14T15:31:40.374Z,6.37
2018-09-14T15:34:08.468Z,5.73
2018-09-14T15:36:36.984Z,4.33
2018-09-14T15:39:08.526Z,6.17
2018-09-14T15:41:36.635Z,6.37
2018-09-14T15:44:04.789Z,4.23
2018-09-14T15:46:32.902Z,3.50
2018-09-14T15:49:01.046Z,4.50
2018-09-14T15:51:29.112Z,3.60
2018-09-14T15:53:57.211Z,5.97
2018-09-14T15:56:25.319Z,8.83
2018-09-14T15:58:53.487Z,5.87
2018-09-14T16:01:21.583Z,4.80
2018-09-14T16:03:49.678Z,5.20
2018-09-14T16:06:17.809Z,5.77
2018-09-14T16:08:45.944Z,4.80
2018-09-14T16:11:14.155Z,4.73
2018-09-14T16:13:42.270Z,6.50
2018-09-14T16:16:10.328Z,4.17
2018-09-14T16:18:38.412Z,9.13
2018-09-14T16:21:06.637Z,7.80
2018-09-14T16:23:34.835Z,4.87
2018-09-14T16:26:02.918Z,4.83
2018-09-14T16:28:31.062Z,3.73
2018-09-14T16:30:59.175Z,3.93
2018-09-14T16:33:27.269Z,5.00
2018-09-14T16:35:55.351Z,5.37
2018-09-14T16:38:23.448Z,4.10
2018-09-14T16:40:52.052Z,5.60
2018-09-14T16:43:20.595Z,5.40
2018-09-14T16:45:48.737Z,5.80
2018-09-14T16:48:16.875Z,5.47
2018-09-14T16:50:44.982Z,4.10
2018-09-14T16:53:13.066Z,10.03
2018-09-14T16:55:42.876Z,7.30
2018-09-14T16:58:11.133Z,3.93
2018-09-14T17:00:39.235Z,4.23
2018-09-14T17:03:07.352Z,6.90
2018-09-14T17:05:35.450Z,4.60
2018-09-14T17:08:03.550Z,5.10
2018-09-14T17:10:31.655Z,4.63
2018-09-14T17:12:59.750Z,3.97
2018-09-14T17:15:28.371Z,3.97
2018-09-14T17:17:56.491Z,6.60
2018-09-14T17:20:24.579Z,5.93
2018-09-14T17:22:52.675Z,9.60
2018-09-14T17:25:24.223Z,5.03
2018-09-14T17:27:52.438Z,9.40
2018-09-14T17:30:20.535Z,4.57
2018-09-14T17:32:48.635Z,7.60
2018-09-14T17:35:16.807Z,6.43
2018-09-14T17:37:44.917Z,5.23
2018-09-14T17:40:13.048Z,6.57
2018-09-14T17:42:41.137Z,8.20
2018-09-14T17:45:09.317Z,6.47
2018-09-14T17:47:37.458Z,5.70
2018-09-14T17:50:06.243Z,5.17
2018-09-14T17:52:35.503Z,4.50
2018-09-14T17:55:03.595Z,4.43
2018-09-14T17:57:31.854Z,3.73
2018-09-14T17:59:59.955Z,6.40
2018-09-14T18:02:28.072Z,5.70
2018-09-14T18:04:56.176Z,7.40
2018-09-14T18:07:24.284Z,4.70
2018-09-14T18:09:52.394Z,6.37
2018-09-14T18:12:20.531Z,4.40
2018-09-14T18:14:48.611Z,5.60
2018-09-14T18:17:16.766Z,8.80
2018-09-14T18:19:44.871Z,4.00
2018-09-14T18:22:13.013Z,5.60
2018-09-14T18:24:41.109Z,5.93
2018-09-14T18:27:09.218Z,4.87
2018-09-14T18:29:37.307Z,8.70
2018-09-14T18:32:05.408Z,3.90
2018-09-14T18:34:33.502Z,4.83
2018-09-14T18:37:01.848Z,6.13
2018-09-14T18:39:29.924Z,3.37
2018-09-14T18:41:58.026Z,4.23
2018-09-14T18:44:26.152Z,13.53
2018-09-14T18:46:54.345Z,7.30
2018-09-14T18:49:22.371Z,8.13
2018-09-14T18:51:50.493Z,4.63
2018-09-14T18:54:18.731Z,5.10
2018-09-14T18:56:46.749Z,6.60
2018-09-14T18:59:14.943Z,6.20
2018-09-14T19:01:43.426Z,6.33
2018-09-14T19:04:11.538Z,8.50
2018-09-14T19:06:39.621Z,4.40
2018-09-14T19:09:09.235Z,5.30
2018-09-14T19:11:37.520Z,5.60
2018-09-14T19:14:05.793Z,5.10
2018-09-14T19:16:34.379Z,7.30
2018-09-14T19:19:02.487Z,6.67
2018-09-14T19:21:30.663Z,8.90
2018-09-14T19:23:58.766Z,8.00
2018-09-14T19:26:26.916Z,4.73
2018-09-14T19:28:55.007Z,6.23
2018-09-14T19:31:23.130Z,4.20
2018-09-14T19:33:51.224Z,5.77
2018-09-14T19:36:19.474Z,5.57
2018-09-14T19:38:47.562Z,5.40
2018-09-14T19:41:15.719Z,10.50
2018-09-14T19:43:43.809Z,6.20
2018-09-14T19:46:11.911Z,7.33
2018-09-14T19:48:40.015Z,6.83
2018-09-14T19:51:08.107Z,6.37
2018-09-14T19:53:36.229Z,6.97
2018-09-14T19:56:04.314Z,9.20
2018-09-14T19:58:32.415Z,6.10
2018-09-14T20:01:00.527Z,6.80
2018-09-14T20:03:28.620Z,5.10
2018-09-14T20:05:56.719Z,6.47
2018-09-14T20:08:24.820Z,10.90
2018-09-14T20:10:52.927Z,6.20
2018-09-14T20:13:21.020Z,13.37
2018-09-14T20:15:49.354Z,5.50
2018-09-14T20:18:17.708Z,7.70
2018-09-14T20:20:45.772Z,5.67
2018-09-14T20:23:13.870Z,8.00
2018-09-14T20:25:41.951Z,7.20
2018-09-14T20:28:10.044Z,5.20
2018-09-14T20:30:38.191Z,8.30
2018-09-14T20:33:06.263Z,9.13
2018-09-14T20:35:34.356Z,6.50
2018-09-14T20:38:02.458Z,7.57
2018-09-14T20:40:30.546Z,11.43
2018-09-14T20:42:58.672Z,6.57
2018-09-14T20:45:26.730Z,7.43
2018-09-14T20:47:54.824Z,8.90
2018-09-14T20:50:22.962Z,11.80
2018-09-14T20:52:51.076Z,8.70
2018-09-14T20:55:19.182Z,10.00
2018-09-14T20:57:47.283Z,6.17
2018-09-14T21:00:18.069Z,5.60
2018-09-14T21:02:46.817Z,6.97
2018-09-14T21:05:14.982Z,6.83
2018-09-14T21:07:43.159Z,5.83
2018-09-14T21:10:11.359Z,5.77
2018-09-14T21:12:39.447Z,7.77
2018-09-14T21:15:07.544Z,6.00
2018-09-14T21:17:35.646Z,6.77
2018-09-14T21:20:03.951Z,12.03
2018-09-14T21:22:32.113Z,6.23
2018-09-14T21:25:00.148Z,4.93
2018-09-14T21:27:28.235Z,5.23
2018-09-14T21:29:56.343Z,5.83
2018-09-14T21:32:24.427Z,7.20
2018-09-14T21:34:52.535Z,6.07
2018-09-14T21:37:20.628Z,9.97
2018-09-14T21:39:48.722Z,7.73
2018-09-14T21:42:16.814Z,5.83
2018-09-14T21:44:44.901Z,8.53
2018-09-14T21:47:14.409Z,7.23
2018-09-14T21:49:42.667Z,5.13
2018-09-14T21:52:10.783Z,8.33
2018-09-14T21:54:38.887Z,5.87
2018-09-14T21:57:07.025Z,5.57
2018-09-14T21:59:35.119Z,5.30
2018-09-14T22:02:03.260Z,6.80
2018-09-14T22:04:31.354Z,8.07
2018-09-14T22:06:59.440Z,7.20
2018-09-14T22:09:27.512Z,9.23
2018-09-14T22:11:55.617Z,10.43
2018-09-14T22:14:23.703Z,7.50
2018-09-14T22:16:52.224Z,7.37
2018-09-14T22:19:20.371Z,5.77
2018-09-14T22:21:48.471Z,6.50
2018-09-14T22:24:16.564Z,11.00
2018-09-14T22:26:44.659Z,12.17
2018-09-14T22:29:12.747Z,6.27
2018-09-14T22:31:40.843Z,8.40
2018-09-14T22:34:08.941Z,5.73
2018-09-14T22:36:37.026Z,9.70
2018-09-14T22:39:07.339Z,5.27
2018-09-14T22:41:35.512Z,8.90
2018-09-14T22:44:03.602Z,6.57
2018-09-14T22:46:31.695Z,6.83
2018-09-14T22:48:59.785Z,6.30
2018-09-14T22:51:27.910Z,16.77
2018-09-14T22:53:56.012Z,8.07
2018-09-14T22:56:24.179Z,6.87
2018-09-14T22:58:52.284Z,10.60
2018-09-14T23:01:20.560Z,7.53
2018-09-14T23:03:49.757Z,6.97
2018-09-14T23:06:17.855Z,8.50
2018-09-14T23:08:46.319Z,8.07
2018-09-14T23:11:14.459Z,7.70
2018-09-14T23:13:42.665Z,8.33
2018-09-14T23:16:10.754Z,8.13
2018-09-14T23:18:38.855Z,6.97
2018-09-14T23:21:07.054Z,8.10
2018-09-14T23:23:35.146Z,8.73
2018-09-14T23:26:06.802Z,9.90
2018-09-14T23:28:34.899Z,10.90
2018-09-14T23:31:02.986Z,10.43
2018-09-14T23:33:31.088Z,7.70
2018-09-14T23:35:59.170Z,8.13
2018-09-14T23:38:27.294Z,7.60
2018-09-14T23:40:55.369Z,8.83
2018-09-14T23:43:23.477Z,10.00
2018-09-14T23:45:51.584Z,10.83
2018-09-14T23:48:19.849Z,8.10
2018-09-14T23:50:48.005Z,9.27
2018-09-14T23:53:16.177Z,7.97
2018-09-14T23:55:44.272Z,9.07
2018-09-14T23:58:12.437Z,8.33
